createdAt,value
2023-02-11T00:02:53.267Z,102459.28
2023-02-11T00:07:54.879Z,102458.22
2023-02-11T00:12:56.666Z,102463.66
2023-02-11T00:17:58.228Z,102472.47
2023-02-11T00:22:59.821Z,102471.47
2023-02-11T00:28:01.406Z,102471.28
2023-02-11T00:33:03.628Z,102462.63
2023-02-11T00:38:07.219Z,102464.84
2023-02-11T00:43:08.851Z,102466.00
2023-02-11T00:48:10.443Z,102459.63
2023-02-11T00:53:12.236Z,102447.94
2023-02-11T00:58:13.953Z,102451.16
2023-02-11T01:03:17.186Z,102441.97
2023-02-11T01:08:19.029Z,102441.22
2023-02-11T01:13:20.598Z,102428.22
2023-02-11T01:18:22.182Z,102416.16
2023-02-11T01:23:24.123Z,102419.88
2023-02-11T01:28:28.529Z,102410.63
2023-02-11T01:33:30.580Z,102420.28
2023-02-11T01:38:33.791Z,102413.59
2023-02-11T01:43:41.682Z,102408.91
2023-02-11T01:48:47.504Z,102409.28
2023-02-11T01:54:09.727Z,102406.56
2023-02-11T01:59:17.973Z,102394.16
2023-02-11T02:04:20.128Z,102386.19
2023-02-11T02:09:29.411Z,102383.84
2023-02-11T02:14:30.998Z,102385.38
2023-02-11T02:20:02.415Z,102391.34
2023-02-11T02:25:28.174Z,102387.03
2023-02-11T02:31:07.455Z,102371.56
2023-02-11T02:36:21.305Z,102369.47
2023-02-11T02:41:32.536Z,102363.66
2023-02-11T02:46:35.614Z,102372.94
2023-02-11T02:52:00.659Z,102352.00
2023-02-11T02:57:13.959Z,102353.66
2023-02-11T03:02:26.828Z,102336.78
2023-02-11T03:07:41.774Z,102337.28
2023-02-11T03:12:48.294Z,102335.41
2023-02-11T03:17:54.297Z,102344.25
2023-02-11T03:23:02.121Z,102345.84
2023-02-11T03:28:23.384Z,102341.81
2023-02-11T03:33:31.324Z,102336.47
2023-02-11T03:38:37.776Z,102334.69
2023-02-11T03:43:44.464Z,102332.47
2023-02-11T03:48:51.916Z,102332.34
2023-02-11T03:53:57.776Z,102341.28
2023-02-11T03:58:59.349Z,102346.28
2023-02-11T04:04:00.927Z,102349.50
2023-02-11T04:09:02.672Z,102333.84
2023-02-11T04:14:04.602Z,102339.59
2023-02-11T04:19:06.198Z,102344.53
2023-02-11T04:24:07.869Z,102333.97
2023-02-11T04:29:10.583Z,102335.97
2023-02-11T04:34:12.340Z,102343.00
2023-02-11T04:39:13.929Z,102334.84
2023-02-11T04:44:15.590Z,102341.63
2023-02-11T04:49:17.540Z,102347.16
2023-02-11T04:54:20.014Z,102339.94
2023-02-11T04:59:21.658Z,102309.78
2023-02-11T05:04:23.305Z,102303.44
2023-02-11T05:09:24.909Z,102284.38
2023-02-11T05:14:26.521Z,102288.69
2023-02-11T05:19:28.110Z,102275.09
2023-02-11T05:24:31.506Z,102275.47
2023-02-11T05:29:34.766Z,102276.63
2023-02-11T05:34:36.866Z,102260.97
2023-02-11T05:39:38.446Z,102271.50
2023-02-11T05:44:40.156Z,102267.50
2023-02-11T05:49:41.760Z,102277.94
2023-02-11T05:54:43.334Z,102285.34
2023-02-11T05:59:44.938Z,102276.19
2023-02-11T06:04:46.617Z,102286.44
2023-02-11T06:09:48.192Z,102293.16
2023-02-11T06:14:49.828Z,102292.84
2023-02-11T06:19:51.623Z,102298.13
2023-02-11T06:25:01.344Z,102311.06
2023-02-11T06:30:04.989Z,102303.97
2023-02-11T06:35:11.930Z,102297.00
2023-02-11T06:40:14.013Z,102294.63
2023-02-11T06:45:15.701Z,102304.28
2023-02-11T06:50:17.432Z,102302.13
2023-02-11T06:55:19.033Z,102305.56
2023-02-11T07:00:20.682Z,102308.06
2023-02-11T07:05:22.248Z,102318.38
2023-02-11T07:10:23.989Z,102316.97
2023-02-11T07:15:25.808Z,102319.03
2023-02-11T07:20:27.409Z,102313.41
2023-02-11T07:25:29.007Z,102340.41
2023-02-11T07:30:30.711Z,102328.59
2023-02-11T07:35:32.337Z,102355.09
2023-02-11T07:40:34.006Z,102369.69
2023-02-11T07:45:38.931Z,102365.59
2023-02-11T07:50:40.490Z,102354.28
2023-02-11T07:55:43.686Z,102345.81
2023-02-11T08:00:46.095Z,102354.66
2023-02-11T08:05:47.733Z,102342.38
2023-02-11T08:10:49.500Z,102333.78
2023-02-11T08:15:51.651Z,102345.59
2023-02-11T08:20:53.520Z,102334.84
2023-02-11T08:25:55.083Z,102316.28
2023-02-11T08:30:56.706Z,102306.06
2023-02-11T08:35:58.370Z,102312.00
2023-02-11T08:41:01.034Z,102316.75
2023-02-11T08:46:03.426Z,102324.00
2023-02-11T08:51:09.611Z,102328.19
2023-02-11T08:56:13.657Z,102322.56
2023-02-11T09:01:26.909Z,102320.31
2023-02-11T09:06:29.492Z,102313.94
2023-02-11T09:11:33.746Z,102312.72
2023-02-11T09:16:36.569Z,102305.19
2023-02-11T09:21:38.218Z,102285.03
2023-02-11T09:26:42.152Z,102289.22
2023-02-11T09:31:43.909Z,102292.69
2023-02-11T09:36:45.884Z,102294.81
2023-02-11T09:42:15.407Z,102285.13
2023-02-11T09:47:27.425Z,102278.47
2023-02-11T09:52:58.131Z,102259.56
2023-02-11T09:58:03.409Z,102264.09
2023-02-11T10:03:26.345Z,102282.22
2023-02-11T10:08:46.764Z,102262.63
2023-02-11T10:14:01.346Z,102231.66
2023-02-11T10:19:34.240Z,102219.91
2023-02-11T10:24:37.440Z,102209.47
2023-02-11T10:29:44.258Z,102191.78
2023-02-11T10:34:45.975Z,102171.53
2023-02-11T10:39:47.581Z,102163.94
2023-02-11T10:45:02.526Z,102171.97
2023-02-11T10:50:29.655Z,102157.19
2023-02-11T10:55:31.287Z,102150.47
2023-02-11T11:00:41.029Z,102145.59
2023-02-11T11:06:01.032Z,102130.50
2023-02-11T11:11:12.371Z,102122.50
2023-02-11T11:16:13.924Z,102140.63
2023-02-11T11:21:42.891Z,102144.53
2023-02-11T11:26:44.436Z,102129.75
2023-02-11T11:31:59.503Z,102126.81
2023-02-11T11:37:11.731Z,102109.66
2023-02-11T11:42:31.529Z,102114.28
2023-02-11T11:47:48.805Z,102089.94
2023-02-11T11:52:54.184Z,102111.06
2023-02-11T11:57:55.760Z,102104.59
2023-02-11T12:03:39.180Z,102108.03
2023-02-11T12:09:07.930Z,102119.81
2023-02-11T12:14:47.072Z,102118.97
2023-02-11T12:20:27.474Z,102103.00
2023-02-11T12:25:54.290Z,102079.31
2023-02-11T12:31:13.187Z,102092.78
2023-02-11T12:36:46.573Z,102088.69
2023-02-11T12:42:18.108Z,102086.13
2023-02-11T12:47:35.526Z,102087.50
2023-02-11T12:53:04.767Z,102067.25
2023-02-11T12:58:16.273Z,102074.25
2023-02-11T13:03:31.999Z,102061.81
2023-02-11T13:08:53.783Z,102069.31
2023-02-11T13:14:12.757Z,102064.56
2023-02-11T13:19:22.359Z,102065.06
2023-02-11T13:24:39.691Z,102051.59
2023-02-11T13:29:59.427Z,102056.03
2023-02-11T13:35:01.887Z,102058.09
2023-02-11T13:40:19.849Z,102065.78
2023-02-11T13:45:33.605Z,102061.84
2023-02-11T13:50:39.803Z,102063.56
2023-02-11T13:55:45.992Z,102047.88
2023-02-11T14:00:51.747Z,102054.84
2023-02-11T14:06:46.115Z,102056.75
2023-02-11T14:11:57.233Z,102056.75
2023-02-11T14:16:58.959Z,102046.66
2023-02-11T14:22:16.633Z,102045.81
2023-02-11T14:27:25.864Z,102034.41
2023-02-11T14:32:53.634Z,102036.97
2023-02-11T14:38:07.512Z,102036.78
2023-02-11T14:43:23.275Z,102039.69
2023-02-11T14:48:31.781Z,102044.47
2023-02-11T14:53:34.852Z,102047.19
2023-02-11T14:58:36.445Z,102053.44
2023-02-11T15:03:43.407Z,102040.25
2023-02-11T15:08:55.059Z,102030.88
2023-02-11T15:13:59.311Z,102042.97
2023-02-11T15:19:06.410Z,102033.00
2023-02-11T15:24:29.951Z,102034.22
2023-02-11T15:29:40.977Z,102048.25
2023-02-11T15:34:44.247Z,102055.09
2023-02-11T15:39:45.888Z,102048.66
2023-02-11T15:44:54.391Z,102058.25
2023-02-11T15:49:58.184Z,102068.84
2023-02-11T15:55:02.833Z,102072.78
2023-02-11T16:00:07.213Z,102071.06
2023-02-11T16:05:32.735Z,102079.63
2023-02-11T16:10:36.120Z,102085.91
2023-02-11T16:15:45.364Z,102103.50
2023-02-11T16:20:48.796Z,102095.16
2023-02-11T16:26:16.687Z,102094.25
2023-02-11T16:31:18.848Z,102093.09
2023-02-11T16:36:20.543Z,102105.88
2023-02-11T16:41:22.169Z,102107.06
2023-02-11T16:46:23.864Z,102109.28
2023-02-11T16:51:25.737Z,102121.16
2023-02-11T16:56:27.343Z,102137.84
2023-02-11T17:01:29.189Z,102136.63
2023-02-11T17:06:31.057Z,102148.72
2023-02-11T17:11:32.602Z,102159.28
2023-02-11T17:16:34.269Z,102153.47
2023-02-11T17:21:35.904Z,102155.13
2023-02-11T17:26:38.474Z,102162.16
2023-02-11T17:31:40.777Z,102184.59
2023-02-11T17:36:42.416Z,102190.38
2023-02-11T17:41:43.968Z,102192.56
2023-02-11T17:46:45.566Z,102195.47
2023-02-11T17:51:47.161Z,102198.53
2023-02-11T17:56:50.793Z,102200.66
2023-02-11T18:01:52.559Z,102202.78
2023-02-11T18:06:54.153Z,102208.22
2023-02-11T18:11:55.783Z,102214.97
2023-02-11T18:16:57.441Z,102214.25
2023-02-11T18:22:00.978Z,102217.31
2023-02-11T18:27:02.865Z,102225.72
2023-02-11T18:32:04.624Z,102235.75
2023-02-11T18:37:06.621Z,102250.81
2023-02-11T18:42:09.183Z,102254.94
2023-02-11T18:47:10.740Z,102265.59
2023-02-11T18:52:12.313Z,102255.47
2023-02-11T18:57:13.866Z,102282.13
2023-02-11T19:02:15.449Z,102280.75
2023-02-11T19:07:17.332Z,102280.63
2023-02-11T19:12:18.892Z,102274.47
2023-02-11T19:17:20.454Z,102291.78
2023-02-11T19:22:22.047Z,102280.22
2023-02-11T19:27:23.663Z,102286.66
2023-02-11T19:32:25.264Z,102285.38
2023-02-11T19:37:26.950Z,102280.31
2023-02-11T19:42:28.593Z,102272.69
2023-02-11T19:47:31.294Z,102278.00
2023-02-11T19:52:32.971Z,102266.78
2023-02-11T19:57:34.531Z,102256.44
2023-02-11T20:02:37.965Z,102256.94
2023-02-11T20:07:39.555Z,102263.31
2023-02-11T20:12:41.117Z,102279.56
2023-02-11T20:17:42.768Z,102285.69
2023-02-11T20:22:44.649Z,102294.47
2023-02-11T20:27:46.209Z,102298.22
2023-02-11T20:32:47.778Z,102296.22
2023-02-11T20:37:49.443Z,102291.59
2023-02-11T20:42:51.460Z,102287.13
2023-02-11T20:47:54.545Z,102296.19
2023-02-11T20:52:56.107Z,102292.03
2023-02-11T20:57:57.736Z,102300.91
2023-02-11T21:02:59.366Z,102310.06
2023-02-11T21:08:01.008Z,102311.34
2023-02-11T21:13:03.016Z,102321.97
2023-02-11T21:18:04.759Z,102321.09
2023-02-11T21:23:06.318Z,102318.53
2023-02-11T21:28:08.034Z,102314.50
2023-02-11T21:33:09.768Z,102309.59
2023-02-11T21:38:11.608Z,102314.47
2023-02-11T21:43:13.242Z,102301.00
2023-02-11T21:48:16.171Z,102307.75
2023-02-11T21:53:17.766Z,102305.03
2023-02-11T21:58:19.395Z,102309.59
2023-02-11T22:03:21.036Z,102309.19
2023-02-11T22:08:22.668Z,102323.09
2023-02-11T22:13:24.309Z,102316.53
2023-02-11T22:18:26.377Z,102335.13
2023-02-11T22:23:28.802Z,102335.13
2023-02-11T22:28:30.494Z,102338.41
2023-02-11T22:33:32.155Z,102351.56
2023-02-11T22:38:34.400Z,102354.56
2023-02-11T22:43:37.183Z,102348.56
2023-02-11T22:48:38.810Z,102352.72
2023-02-11T22:53:40.482Z,102347.84
2023-02-11T22:58:42.119Z,102356.84
2023-02-11T23:03:44.630Z,102339.38
2023-02-11T23:08:49.372Z,102340.28
2023-02-11T23:13:52.876Z,102340.53
2023-02-11T23:18:55.200Z,102362.88
2023-02-11T23:24:15.834Z,102357.28
2023-02-11T23:29:17.515Z,102353.69
2023-02-11T23:34:23.953Z,102351.28
2023-02-11T23:39:25.613Z,102345.25
2023-02-11T23:44:27.929Z,102347.53
2023-02-11T23:49:29.678Z,102355.88
2023-02-11T23:54:31.252Z,102345.25
2023-02-11T23:59:35.320Z,102355.13
